sensor_id;sensor_type;location;lat;lon;timestamp;temperature;humidity
10231;DHT22;62604;49.432;8.680;2023-04-07T00:00:29;7.00;99.90
10231;DHT22;62604;49.432;8.680;2023-04-07T00:02:57;7.00;99.90
10231;DHT22;62604;49.432;8.680;2023-04-07T00:05:26;7.00;99.90
10231;DHT22;62604;49.432;8.680;2023-04-07T00:07:54;7.00;99.90
10231;DHT22;62604;49.432;8.680;2023-04-07T00:10:21;7.00;99.90
10231;DHT22;62604;49.432;8.680;2023-04-07T00:12:48;7.00;99.90
10231;DHT22;62604;49.432;8.680;2023-04-07T00:15:15;7.00;99.90
10231;DHT22;62604;49.432;8.680;2023-04-07T00:17:42;7.00;99.90
10231;DHT22;62604;49.432;8.680;2023-04-07T00:20:13;7.00;99.90
10231;DHT22;62604;49.432;8.680;2023-04-07T00:22:40;7.10;99.90
10231;DHT22;62604;49.432;8.680;2023-04-07T00:25:08;7.10;99.90
10231;DHT22;62604;49.432;8.680;2023-04-07T00:27:35;7.10;99.90
10231;DHT22;62604;49.432;8.680;2023-04-07T00:30:03;7.10;99.90
10231;DHT22;62604;49.432;8.680;2023-04-07T00:32:31;7.10;99.90
10231;DHT22;62604;49.432;8.680;2023-04-07T00:34:58;7.20;99.90
10231;DHT22;62604;49.432;8.680;2023-04-07T00:37:27;7.10;99.90
10231;DHT22;62604;49.432;8.680;2023-04-07T00:39:55;7.10;99.90
10231;DHT22;62604;49.432;8.680;2023-04-07T00:42:24;7.10;99.90
10231;DHT22;62604;49.432;8.680;2023-04-07T00:44:51;7.00;99.90
10231;DHT22;62604;49.432;8.680;2023-04-07T00:47:19;7.00;99.90
10231;DHT22;62604;49.432;8.680;2023-04-07T00:49:46;7.00;99.90
10231;DHT22;62604;49.432;8.680;2023-04-07T00:52:13;7.00;99.90
10231;DHT22;62604;49.432;8.680;2023-04-07T00:54:45;7.00;99.90
10231;DHT22;62604;49.432;8.680;2023-04-07T00:57:13;7.00;99.90
10231;DHT22;62604;49.432;8.680;2023-04-07T00:59:41;7.00;99.90
10231;DHT22;62604;49.432;8.680;2023-04-07T01:02:12;7.00;99.90
10231;DHT22;62604;49.432;8.680;2023-04-07T01:04:45;7.00;99.90
10231;DHT22;62604;49.432;8.680;2023-04-07T01:07:17;7.00;99.90
10231;DHT22;62604;49.432;8.680;2023-04-07T01:09:54;7.00;99.90
10231;DHT22;62604;49.432;8.680;2023-04-07T01:12:35;7.00;99.90
10231;DHT22;62604;49.432;8.680;2023-04-07T01:15:09;6.90;99.90
10231;DHT22;62604;49.432;8.680;2023-04-07T01:17:40;7.00;99.90
10231;DHT22;62604;49.432;8.680;2023-04-07T10:40:38;18.40;45.50
10231;DHT22;62604;49.432;8.680;2023-04-07T10:43:07;17.80;48.60
10231;DHT22;62604;49.432;8.680;2023-04-07T10:45:55;18.80;47.80
10231;DHT22;62604;49.432;8.680;2023-04-07T10:48:24;20.10;45.30
10231;DHT22;62604;49.432;8.680;2023-04-07T10:51:12;20.60;40.00
10231;DHT22;62604;49.432;8.680;2023-04-07T10:54:16;22.30;37.20
10231;DHT22;62604;49.432;8.680;2023-04-07T10:57:13;22.10;32.70
10231;DHT22;62604;49.432;8.680;2023-04-07T11:00:14;21.20;31.90
10231;DHT22;62604;49.432;8.680;2023-04-07T11:02:42;21.80;31.60
10231;DHT22;62604;49.432;8.680;2023-04-07T11:05:20;21.10;29.90
10231;DHT22;62604;49.432;8.680;2023-04-07T11:07:52;20.00;32.20
10231;DHT22;62604;49.432;8.680;2023-04-07T11:10:32;19.20;33.90
10231;DHT22;62604;49.432;8.680;2023-04-07T11:13:06;18.40;37.10
10231;DHT22;62604;49.432;8.680;2023-04-07T11:15:35;18.00;39.50
10231;DHT22;62604;49.432;8.680;2023-04-07T11:20:50;17.40;43.70
10231;DHT22;62604;49.432;8.680;2023-04-07T11:23:21;18.30;44.80
10231;DHT22;62604;49.432;8.680;2023-04-07T11:25:51;18.10;43.10
10231;DHT22;62604;49.432;8.680;2023-04-07T11:28:20;18.10;44.40
10231;DHT22;62604;49.432;8.680;2023-04-07T11:30:50;17.50;45.20
10231;DHT22;62604;49.432;8.680;2023-04-07T11:33:20;17.40;47.00
10231;DHT22;62604;49.432;8.680;2023-04-07T11:35:53;16.60;48.00
10231;DHT22;62604;49.432;8.680;2023-04-07T11:38:24;16.90;50.10
10231;DHT22;62604;49.432;8.680;2023-04-07T11:40:54;16.30;50.00
10231;DHT22;62604;49.432;8.680;2023-04-07T11:43:26;16.50;50.50
10231;DHT22;62604;49.432;8.680;2023-04-07T11:46:08;16.40;50.20
10231;DHT22;62604;49.432;8.680;2023-04-07T11:48:37;15.90;52.20
10231;DHT22;62604;49.432;8.680;2023-04-07T11:51:05;15.50;53.40
10231;DHT22;62604;49.432;8.680;2023-04-07T11:53:37;15.60;55.30
10231;DHT22;62604;49.432;8.680;2023-04-07T11:56:06;16.10;55.60
10231;DHT22;62604;49.432;8.680;2023-04-07T11:58:36;16.80;53.90
10231;DHT22;62604;49.432;8.680;2023-04-07T12:01:05;17.60;51.00
10231;DHT22;62604;49.432;8.680;2023-04-07T12:03:35;18.10;46.70
10231;DHT22;62604;49.432;8.680;2023-04-07T12:06:03;18.80;46.60
10231;DHT22;62604;49.432;8.680;2023-04-07T12:08:41;19.00;42.20
10231;DHT22;62604;49.432;8.680;2023-04-07T12:11:09;17.20;45.50
10231;DHT22;62604;49.432;8.680;2023-04-07T12:13:39;15.40;49.30
10231;DHT22;62604;49.432;8.680;2023-04-07T12:16:07;15.70;52.70
10231;DHT22;62604;49.432;8.680;2023-04-07T12:18:34;16.90;52.70
10231;DHT22;62604;49.432;8.680;2023-04-07T12:21:02;17.40;49.40
10231;DHT22;62604;49.432;8.680;2023-04-07T12:23:29;17.60;48.30
10231;DHT22;62604;49.432;8.680;2023-04-07T12:25:56;17.90;46.10
10231;DHT22;62604;49.432;8.680;2023-04-07T12:28:23;17.00;46.60
10231;DHT22;62604;49.432;8.680;2023-04-07T12:30:53;18.60;47.10
10231;DHT22;62604;49.432;8.680;2023-04-07T12:33:20;19.10;42.70
10231;DHT22;62604;49.432;8.680;2023-04-07T12:35:48;17.40;41.90
10231;DHT22;62604;49.432;8.680;2023-04-07T12:38:16;17.50;46.80
10231;DHT22;62604;49.432;8.680;2023-04-07T12:40:43;18.10;45.50
10231;DHT22;62604;49.432;8.680;2023-04-07T12:43:11;18.50;44.50
10231;DHT22;62604;49.432;8.680;2023-04-07T12:45:38;18.60;44.00
10231;DHT22;62604;49.432;8.680;2023-04-07T12:48:06;18.50;43.60
10231;DHT22;62604;49.432;8.680;2023-04-07T12:50:34;17.90;44.90
10231;DHT22;62604;49.432;8.680;2023-04-07T12:53:02;17.60;46.50
10231;DHT22;62604;49.432;8.680;2023-04-07T12:55:30;17.30;48.40
10231;DHT22;62604;49.432;8.680;2023-04-07T12:57:58;16.30;49.40
10231;DHT22;62604;49.432;8.680;2023-04-07T13:00:29;14.90;52.00
10231;DHT22;62604;49.432;8.680;2023-04-07T13:02:56;14.80;55.30
10231;DHT22;62604;49.432;8.680;2023-04-07T13:05:25;14.80;57.10
10231;DHT22;62604;49.432;8.680;2023-04-07T13:07:53;14.60;56.60
10231;DHT22;62604;49.432;8.680;2023-04-07T13:10:20;14.80;58.00
10231;DHT22;62604;49.432;8.680;2023-04-07T13:12:47;14.80;58.70
10231;DHT22;62604;49.432;8.680;2023-04-07T13:15:14;14.80;58.20
10231;DHT22;62604;49.432;8.680;2023-04-07T13:17:41;14.90;57.60
10231;DHT22;62604;49.432;8.680;2023-04-07T13:20:08;15.20;58.30
10231;DHT22;62604;49.432;8.680;2023-04-07T13:22:37;16.00;57.30
10231;DHT22;62604;49.432;8.680;2023-04-07T13:25:05;16.80;52.70
10231;DHT22;62604;49.432;8.680;2023-04-07T13:27:32;17.10;51.10
10231;DHT22;62604;49.432;8.680;2023-04-07T13:29:59;18.00;50.70
10231;DHT22;62604;49.432;8.680;2023-04-07T13:32:26;17.40;47.40
10231;DHT22;62604;49.432;8.680;2023-04-07T13:34:54;16.70;50.30
10231;DHT22;62604;49.432;8.680;2023-04-07T13:37:21;16.20;53.60
10231;DHT22;62604;49.432;8.680;2023-04-07T13:39:51;14.50;57.00
10231;DHT22;62604;49.432;8.680;2023-04-07T13:42:18;13.90;62.90
10231;DHT22;62604;49.432;8.680;2023-04-07T13:44:46;14.10;62.90
10231;DHT22;62604;49.432;8.680;2023-04-07T13:47:15;14.20;62.70
10231;DHT22;62604;49.432;8.680;2023-04-07T13:49:45;13.40;63.10
10231;DHT22;62604;49.432;8.680;2023-04-07T13:52:14;13.30;64.30
10231;DHT22;62604;49.432;8.680;2023-04-07T13:54:42;13.40;64.70
10231;DHT22;62604;49.432;8.680;2023-04-07T13:57:12;13.80;64.00
10231;DHT22;62604;49.432;8.680;2023-04-07T13:59:45;14.30;61.90
10231;DHT22;62604;49.432;8.680;2023-04-07T14:02:12;15.00;62.80
10231;DHT22;62604;49.432;8.680;2023-04-07T14:04:40;15.50;61.20
10231;DHT22;62604;49.432;8.680;2023-04-07T14:07:07;16.00;58.60
10231;DHT22;62604;49.432;8.680;2023-04-07T14:09:34;15.70;56.30
10231;DHT22;62604;49.432;8.680;2023-04-07T14:12:01;15.60;58.60
10231;DHT22;62604;49.432;8.680;2023-04-07T14:14:30;15.90;59.10
10231;DHT22;62604;49.432;8.680;2023-04-07T14:16:57;16.10;56.90
10231;DHT22;62604;49.432;8.680;2023-04-07T14:19:24;15.10;57.70
10231;DHT22;62604;49.432;8.680;2023-04-07T14:21:52;15.60;58.80
10231;DHT22;62604;49.432;8.680;2023-04-07T14:24:19;16.10;57.80
10231;DHT22;62604;49.432;8.680;2023-04-07T14:26:46;16.30;57.80
10231;DHT22;62604;49.432;8.680;2023-04-07T14:29:19;16.10;56.60
10231;DHT22;62604;49.432;8.680;2023-04-07T14:31:48;15.30;56.80
10231;DHT22;62604;49.432;8.680;2023-04-07T14:34:16;14.80;60.20
10231;DHT22;62604;49.432;8.680;2023-04-07T14:36:52;14.30;64.10
10231;DHT22;62604;49.432;8.680;2023-04-07T14:39:20;13.70;60.70
10231;DHT22;62604;49.432;8.680;2023-04-07T14:41:51;13.70;63.80
10231;DHT22;62604;49.432;8.680;2023-04-07T14:44:18;13.40;64.20
10231;DHT22;62604;49.432;8.680;2023-04-07T14:46:45;12.60;67.70
10231;DHT22;62604;49.432;8.680;2023-04-07T14:49:14;12.50;70.90
10231;DHT22;62604;49.432;8.680;2023-04-07T14:51:41;12.50;71.50
10231;DHT22;62604;49.432;8.680;2023-04-07T14:54:09;12.80;73.20
10231;DHT22;62604;49.432;8.680;2023-04-07T14:56:36;12.50;70.90
10231;DHT22;62604;49.432;8.680;2023-04-07T14:59:04;12.30;73.10
10231;DHT22;62604;49.432;8.680;2023-04-07T15:01:31;12.50;74.30
10231;DHT22;62604;49.432;8.680;2023-04-07T15:03:58;12.80;75.40
10231;DHT22;62604;49.432;8.680;2023-04-07T15:06:27;13.20;73.60
10231;DHT22;62604;49.432;8.680;2023-04-07T15:08:54;13.30;72.00
10231;DHT22;62604;49.432;8.680;2023-04-07T15:11:21;13.50;70.20
10231;DHT22;62604;49.432;8.680;2023-04-07T15:13:48;13.70;67.70
10231;DHT22;62604;49.432;8.680;2023-04-07T15:16:15;13.70;68.80
10231;DHT22;62604;49.432;8.680;2023-04-07T15:18:44;13.40;67.00
10231;DHT22;62604;49.432;8.680;2023-04-07T15:21:12;13.10;67.00
10231;DHT22;62604;49.432;8.680;2023-04-07T15:23:44;12.70;67.90
10231;DHT22;62604;49.432;8.680;2023-04-07T15:26:11;12.90;69.00
10231;DHT22;62604;49.432;8.680;2023-04-07T15:28:39;12.90;67.50
10231;DHT22;62604;49.432;8.680;2023-04-07T15:31:06;13.30;68.20
10231;DHT22;62604;49.432;8.680;2023-04-07T15:33:35;13.80;66.30
10231;DHT22;62604;49.432;8.680;2023-04-07T15:36:03;14.30;63.40
10231;DHT22;62604;49.432;8.680;2023-04-07T15:38:30;14.80;61.30
10231;DHT22;62604;49.432;8.680;2023-04-07T15:40:58;14.60;59.60
10231;DHT22;62604;49.432;8.680;2023-04-07T15:43:26;14.50;60.70
10231;DHT22;62604;49.432;8.680;2023-04-07T15:45:54;14.40;61.90
10231;DHT22;62604;49.432;8.680;2023-04-07T15:48:21;14.10;62.90
10231;DHT22;62604;49.432;8.680;2023-04-07T15:50:48;13.60;64.00
10231;DHT22;62604;49.432;8.680;2023-04-07T15:53:16;13.30;67.70
10231;DHT22;62604;49.432;8.680;2023-04-07T15:55:43;13.00;68.60
10231;DHT22;62604;49.432;8.680;2023-04-07T15:58:12;13.00;70.50
10231;DHT22;62604;49.432;8.680;2023-04-07T16:00:39;12.90;70.80
10231;DHT22;62604;49.432;8.680;2023-04-07T16:03:07;12.30;72.90
10231;DHT22;62604;49.432;8.680;2023-04-07T16:05:36;12.00;76.50
10231;DHT22;62604;49.432;8.680;2023-04-07T16:08:03;11.50;81.00
10231;DHT22;62604;49.432;8.680;2023-04-07T16:10:31;11.50;84.30
10231;DHT22;62604;49.432;8.680;2023-04-07T16:12:59;11.60;84.50
10231;DHT22;62604;49.432;8.680;2023-04-07T16:15:28;11.60;82.50
10231;DHT22;62604;49.432;8.680;2023-04-07T16:17:55;11.40;84.10
10231;DHT22;62604;49.432;8.680;2023-04-07T16:20:22;11.50;84.60
10231;DHT22;62604;49.432;8.680;2023-04-07T16:22:49;11.30;86.80
10231;DHT22;62604;49.432;8.680;2023-04-07T16:25:17;11.20;88.70
10231;DHT22;62604;49.432;8.680;2023-04-07T16:27:44;11.20;89.80
10231;DHT22;62604;49.432;8.680;2023-04-07T16:30:13;11.30;90.40
10231;DHT22;62604;49.432;8.680;2023-04-07T16:32:42;11.30;90.60
10231;DHT22;62604;49.432;8.680;2023-04-07T16:35:11;11.40;91.10
10231;DHT22;62604;49.432;8.680;2023-04-07T16:37:39;11.40;91.80
10231;DHT22;62604;49.432;8.680;2023-04-07T16:40:08;11.40;91.00
10231;DHT22;62604;49.432;8.680;2023-04-07T16:42:35;11.30;90.70
10231;DHT22;62604;49.432;8.680;2023-04-07T16:45:03;11.30;90.30
10231;DHT22;62604;49.432;8.680;2023-04-07T16:47:31;11.30;90.00
10231;DHT22;62604;49.432;8.680;2023-04-07T16:50:01;11.40;90.80
10231;DHT22;62604;49.432;8.680;2023-04-07T16:52:29;11.50;90.00
10231;DHT22;62604;49.432;8.680;2023-04-07T16:54:58;11.60;90.30
10231;DHT22;62604;49.432;8.680;2023-04-07T16:57:25;11.60;90.00
10231;DHT22;62604;49.432;8.680;2023-04-07T16:59:52;11.60;89.20
10231;DHT22;62604;49.432;8.680;2023-04-07T17:02:19;11.50;88.60
10231;DHT22;62604;49.432;8.680;2023-04-07T17:04:46;11.50;87.50
10231;DHT22;62604;49.432;8.680;2023-04-07T17:07:15;11.40;87.40
10231;DHT22;62604;49.432;8.680;2023-04-07T17:09:42;11.30;88.50
10231;DHT22;62604;49.432;8.680;2023-04-07T17:12:09;11.20;89.30
10231;DHT22;62604;49.432;8.680;2023-04-07T17:14:38;11.00;90.60
10231;DHT22;62604;49.432;8.680;2023-04-07T17:17:05;10.90;91.20
10231;DHT22;62604;49.432;8.680;2023-04-07T17:19:32;10.90;92.40
10231;DHT22;62604;49.432;8.680;2023-04-07T17:22:00;10.90;93.00
10231;DHT22;62604;49.432;8.680;2023-04-07T17:24:29;10.80;93.50
10231;DHT22;62604;49.432;8.680;2023-04-07T17:26:57;10.80;94.40
10231;DHT22;62604;49.432;8.680;2023-04-07T17:29:24;10.70;94.40
10231;DHT22;62604;49.432;8.680;2023-04-07T17:31:56;10.70;95.60
10231;DHT22;62604;49.432;8.680;2023-04-07T17:34:24;10.60;96.20
10231;DHT22;62604;49.432;8.680;2023-04-07T17:36:52;10.50;96.90
10231;DHT22;62604;49.432;8.680;2023-04-07T17:39:19;10.50;98.10
10231;DHT22;62604;49.432;8.680;2023-04-07T17:41:48;10.40;99.20
10231;DHT22;62604;49.432;8.680;2023-04-07T17:44:15;10.30;99.90
10231;DHT22;62604;49.432;8.680;2023-04-07T17:46:42;10.30;99.90
10231;DHT22;62604;49.432;8.680;2023-04-07T17:49:09;10.30;99.90
10231;DHT22;62604;49.432;8.680;2023-04-07T17:51:36;10.30;99.90
10231;DHT22;62604;49.432;8.680;2023-04-07T17:54:03;10.20;99.90
10231;DHT22;62604;49.432;8.680;2023-04-07T17:56:30;10.10;99.90
10231;DHT22;62604;49.432;8.680;2023-04-07T17:58:59;10.20;99.90
10231;DHT22;62604;49.432;8.680;2023-04-07T18:01:26;10.20;99.90
10231;DHT22;62604;49.432;8.680;2023-04-07T18:03:53;10.20;99.90
10231;DHT22;62604;49.432;8.680;2023-04-07T18:06:21;10.20;99.90
10231;DHT22;62604;49.432;8.680;2023-04-07T18:08:48;10.20;99.90
10231;DHT22;62604;49.432;8.680;2023-04-07T18:11:16;10.10;99.90
10231;DHT22;62604;49.432;8.680;2023-04-07T18:13:43;10.10;99.90
10231;DHT22;62604;49.432;8.680;2023-04-07T18:16:12;10.10;99.90
10231;DHT22;62604;49.432;8.680;2023-04-07T18:18:41;10.10;99.90
10231;DHT22;62604;49.432;8.680;2023-04-07T18:21:09;10.10;99.90
10231;DHT22;62604;49.432;8.680;2023-04-07T18:23:36;10.10;99.90
10231;DHT22;62604;49.432;8.680;2023-04-07T18:26:03;10.00;99.90
10231;DHT22;62604;49.432;8.680;2023-04-07T18:28:31;10.10;99.90
10231;DHT22;62604;49.432;8.680;2023-04-07T18:31:03;10.10;99.90
10231;DHT22;62604;49.432;8.680;2023-04-07T18:33:33;10.10;99.90
10231;DHT22;62604;49.432;8.680;2023-04-07T18:36:02;10.10;99.90
10231;DHT22;62604;49.432;8.680;2023-04-07T18:38:31;10.10;99.90
10231;DHT22;62604;49.432;8.680;2023-04-07T18:40:58;10.10;99.90
10231;DHT22;62604;49.432;8.680;2023-04-07T18:43:25;10.10;99.90
10231;DHT22;62604;49.432;8.680;2023-04-07T18:45:52;10.20;99.90
10231;DHT22;62604;49.432;8.680;2023-04-07T18:48:22;10.20;99.90
10231;DHT22;62604;49.432;8.680;2023-04-07T18:50:53;10.20;99.90
10231;DHT22;62604;49.432;8.680;2023-04-07T18:53:22;10.20;99.90
10231;DHT22;62604;49.432;8.680;2023-04-07T18:55:59;10.20;99.90
10231;DHT22;62604;49.432;8.680;2023-04-07T18:58:40;10.10;99.90
10231;DHT22;62604;49.432;8.680;2023-04-07T19:01:11;10.10;99.90
10231;DHT22;62604;49.432;8.680;2023-04-07T19:03:45;10.10;99.90
10231;DHT22;62604;49.432;8.680;2023-04-07T19:06:18;10.10;99.90
10231;DHT22;62604;49.432;8.680;2023-04-07T19:08:46;10.10;99.90
10231;DHT22;62604;49.432;8.680;2023-04-07T19:11:14;10.10;99.90
10231;DHT22;62604;49.432;8.680;2023-04-07T19:13:41;10.10;99.90
10231;DHT22;62604;49.432;8.680;2023-04-07T19:16:08;10.10;99.90
10231;DHT22;62604;49.432;8.680;2023-04-07T19:18:35;10.10;99.90
10231;DHT22;62604;49.432;8.680;2023-04-07T19:21:03;10.10;99.90
10231;DHT22;62604;49.432;8.680;2023-04-07T19:23:32;10.10;99.90
10231;DHT22;62604;49.432;8.680;2023-04-07T19:26:00;10.10;99.90
10231;DHT22;62604;49.432;8.680;2023-04-07T19:28:27;10.00;99.90
10231;DHT22;62604;49.432;8.680;2023-04-07T19:30:54;10.00;99.90
10231;DHT22;62604;49.432;8.680;2023-04-07T19:33:23;10.00;99.90
10231;DHT22;62604;49.432;8.680;2023-04-07T19:35:50;9.90;99.90
10231;DHT22;62604;49.432;8.680;2023-04-07T19:38:18;9.90;99.90
10231;DHT22;62604;49.432;8.680;2023-04-07T19:40:46;9.80;99.90
10231;DHT22;62604;49.432;8.680;2023-04-07T19:43:14;9.80;99.90
10231;DHT22;62604;49.432;8.680;2023-04-07T19:45:42;9.70;99.90
10231;DHT22;62604;49.432;8.680;2023-04-07T19:48:10;9.70;99.90
10231;DHT22;62604;49.432;8.680;2023-04-07T19:50:37;9.70;99.90
10231;DHT22;62604;49.432;8.680;2023-04-07T19:53:08;9.70;99.90
10231;DHT22;62604;49.432;8.680;2023-04-07T19:55:40;9.70;99.90
10231;DHT22;62604;49.432;8.680;2023-04-07T19:58:09;9.60;99.90
10231;DHT22;62604;49.432;8.680;2023-04-07T20:00:37;9.60;99.90
